Time;durP1;ratioP1;P1;durP2;ratioP2;P2;SDS_P1;SDS_P2;PMS_P1;PMS_P2;Temp;Humidity;BMP_temperature;BMP_pressure;BME280_temperature;BME280_humidity;BME280_pressure;Samples;Min_cycle;Max_cycle;Signal;HPM_P1;HPM_P2
2022/02/05 00:01:32;;;;;;;;;52.50;39.50;;;;;;;;5041042;28;51250;-60
2022/02/05 00:04:17;;;;;;;;;51.00;37.75;;;;;;;;5040480;28;51530;-59
2022/02/05 00:07:05;;;;;;;;;50.00;38.00;;;;;;;;5040751;28;51115;-61
2022/02/05 00:40:31;;;;;;;;;56.75;41.00;;;;;;;;5036783;28;51103;-60
2022/02/05 00:43:17;;;;;;;;;50.25;39.00;;;;;;;;5038521;28;51078;-61
2022/02/05 00:46:01;;;;;;;;;52.00;40.00;;;;;;;;5039625;28;51073;-59
2022/02/05 00:48:45;;;;;;;;;47.50;37.25;;;;;;;;5040294;28;51105;-61
2022/02/05 00:51:35;;;;;;;;;49.75;39.25;;;;;;;;5039093;28;51173;-59
2022/02/05 00:54:23;;;;;;;;;53.75;38.00;;;;;;;;5039409;28;51232;-61
2022/02/05 00:57:20;;;;;;;;;52.00;40.25;;;;;;;;5040689;28;51164;-59
2022/02/05 01:00:05;;;;;;;;;49.50;39.75;;;;;;;;5039978;28;51314;-59
2022/02/05 01:02:50;;;;;;;;;50.00;38.75;;;;;;;;5039522;28;51194;-61
2022/02/05 01:05:35;;;;;;;;;52.00;39.00;;;;;;;;5021610;28;51172;-60
2022/02/05 01:08:19;;;;;;;;;49.25;38.00;;;;;;;;5040063;28;51177;-60
2022/02/05 01:11:04;;;;;;;;;49.75;38.25;;;;;;;;5035713;28;51392;-60
2022/02/05 01:13:49;;;;;;;;;45.00;34.00;;;;;;;;5038606;28;51509;-60
2022/02/05 01:22:37;;;;;;;;;51.75;37.50;;;;;;;;5039402;28;51176;-60
2022/02/05 01:25:26;;;;;;;;;49.25;38.00;;;;;;;;5038273;28;51453;-59
2022/02/05 01:28:16;;;;;;;;;49.25;38.75;;;;;;;;5039290;28;51642;-60
2022/02/05 01:31:00;;;;;;;;;51.00;39.75;;;;;;;;5036665;28;51160;-60
2022/02/05 01:55:04;;;;;;;;;50.25;36.75;;;;;;;;5038085;28;52412;-61
2022/02/05 01:57:18;;;;;;;;;53.50;38.75;;;;;;;;5031241;28;51113;-60
2022/02/05 02:06:31;;;;;;;;;52.25;39.50;;;;;;;;5038393;28;51544;-60
2022/02/05 02:12:08;;;;;;;;;48.00;39.00;;;;;;;;5039518;28;51108;-61
2022/02/05 02:21:08;;;;;;;;;48.75;39.00;;;;;;;;5038867;28;51723;-61
2022/02/05 02:27:04;;;;;;;;;50.50;39.00;;;;;;;;5039294;28;51171;-60
2022/02/05 02:32:45;;;;;;;;;47.25;37.00;;;;;;;;5039246;28;51483;-60
2022/02/05 02:35:32;;;;;;;;;46.00;37.75;;;;;;;;5039666;28;51643;-59
2022/02/05 02:38:20;;;;;;;;;51.00;39.00;;;;;;;;5038763;28;51154;-60
2022/02/05 02:41:13;;;;;;;;;47.50;36.50;;;;;;;;5038744;28;51217;-59
2022/02/05 02:43:57;;;;;;;;;51.00;40.00;;;;;;;;5038549;28;51066;-60
2022/02/05 02:46:42;;;;;;;;;44.75;36.25;;;;;;;;5039260;28;51932;-60
2022/02/05 02:49:54;;;;;;;;;59.75;42.50;;;;;;;;5038710;28;51089;-60
2022/02/05 02:58:44;;;;;;;;;57.75;43.75;;;;;;;;5038009;28;51134;-60
2022/02/05 03:01:31;;;;;;;;;61.50;44.50;;;;;;;;5039024;28;51943;-59
2022/02/05 03:04:15;;;;;;;;;55.00;42.50;;;;;;;;5037877;28;51101;-60
2022/02/05 03:06:59;;;;;;;;;58.00;45.50;;;;;;;;5038914;28;51106;-59
2022/02/05 03:09:45;;;;;;;;;53.75;43.00;;;;;;;;5032712;28;51166;-59
2022/02/05 03:12:30;;;;;;;;;58.00;44.75;;;;;;;;5038884;28;52449;-60
2022/02/05 03:15:18;;;;;;;;;59.00;45.00;;;;;;;;5020598;28;51179;-60
2022/02/05 03:18:05;;;;;;;;;59.75;45.25;;;;;;;;5034488;28;51219;-60
2022/02/05 03:20:49;;;;;;;;;51.75;42.75;;;;;;;;5032194;28;51358;-60
2022/02/05 03:23:34;;;;;;;;;57.00;45.50;;;;;;;;5037930;28;51151;-60
2022/02/05 03:26:20;;;;;;;;;60.25;46.50;;;;;;;;5038001;28;51149;-60
2022/02/05 03:29:06;;;;;;;;;58.25;45.25;;;;;;;;5022869;28;51128;-60
2022/02/05 03:31:51;;;;;;;;;61.75;45.00;;;;;;;;5038135;28;51109;-59
2022/02/05 03:34:36;;;;;;;;;61.00;44.25;;;;;;;;5037402;28;51167;-59
2022/02/05 03:37:21;;;;;;;;;57.00;43.25;;;;;;;;5017334;28;51703;-60
2022/02/05 03:40:05;;;;;;;;;60.50;46.25;;;;;;;;5014488;28;51100;-60
2022/02/05 03:42:50;;;;;;;;;59.00;46.25;;;;;;;;5038213;28;51101;-59
2022/02/05 03:45:34;;;;;;;;;56.00;45.50;;;;;;;;5036273;28;51025;-60
2022/02/05 03:48:18;;;;;;;;;60.75;45.50;;;;;;;;5037926;28;51057;-61
2022/02/05 03:51:04;;;;;;;;;61.00;46.75;;;;;;;;5037204;28;51765;-60
2022/02/05 03:53:48;;;;;;;;;60.50;45.50;;;;;;;;5036951;28;51417;-60
2022/02/05 03:56:32;;;;;;;;;62.00;46.00;;;;;;;;5037831;28;51359;-60
2022/02/05 03:59:17;;;;;;;;;57.75;44.00;;;;;;;;5033368;28;51184;-60
2022/02/05 04:02:02;;;;;;;;;58.25;45.00;;;;;;;;5038117;28;51785;-59
2022/02/05 04:04:47;;;;;;;;;58.75;44.75;;;;;;;;5037527;28;51352;-60
2022/02/05 04:07:35;;;;;;;;;58.25;44.75;;;;;;;;5038758;28;51148;-60
2022/02/05 04:10:25;;;;;;;;;56.50;43.50;;;;;;;;5038184;28;51480;-59
2022/02/05 04:16:23;;;;;;;;;58.00;43.75;;;;;;;;5038228;28;51191;-60
2022/02/05 04:19:07;;;;;;;;;59.50;46.25;;;;;;;;5037184;28;51161;-60
2022/02/05 04:21:52;;;;;;;;;64.00;47.25;;;;;;;;5037980;28;51466;-60
2022/02/05 04:24:37;;;;;;;;;61.75;47.50;;;;;;;;5036736;28;51034;-60
2022/02/05 04:27:21;;;;;;;;;59.25;46.00;;;;;;;;5037980;28;51081;-60
2022/02/05 04:30:06;;;;;;;;;62.25;46.75;;;;;;;;5040995;28;51183;-59
2022/02/05 04:32:51;;;;;;;;;56.25;43.25;;;;;;;;5008622;28;51161;-61
2022/02/05 04:35:36;;;;;;;;;61.75;46.00;;;;;;;;5041262;28;51392;-59
2022/02/05 04:38:22;;;;;;;;;61.50;45.75;;;;;;;;5039926;28;51134;-60
2022/02/05 04:41:14;;;;;;;;;58.25;46.00;;;;;;;;5041423;28;51681;-60
2022/02/05 04:44:19;;;;;;;;;62.50;46.00;;;;;;;;5041123;28;51255;-58
2022/02/05 05:05:20;;;;;;;;;61.50;47.75;;;;;;;;5035969;28;51104;-61
2022/02/05 05:08:09;;;;;;;;;64.25;49.50;;;;;;;;5040519;28;51854;-59
2022/02/05 05:19:47;;;;;;;;;60.50;46.75;;;;;;;;5037998;28;51692;-60
2022/02/05 05:22:32;;;;;;;;;62.75;49.00;;;;;;;;5040347;28;52597;-59
2022/02/05 05:25:17;;;;;;;;;67.25;50.00;;;;;;;;5040754;28;51025;-61
2022/02/05 05:28:02;;;;;;;;;63.25;47.75;;;;;;;;5040532;28;51062;-60
2022/02/05 05:30:46;;;;;;;;;68.25;51.00;;;;;;;;5040342;28;51250;-60
2022/02/05 05:33:31;;;;;;;;;66.25;50.00;;;;;;;;5040519;28;51083;-60
2022/02/05 05:36:15;;;;;;;;;64.50;48.25;;;;;;;;5038695;28;51471;-58
2022/02/05 05:39:02;;;;;;;;;70.00;51.25;;;;;;;;5038814;28;51547;-60
2022/02/05 05:41:46;;;;;;;;;69.50;51.75;;;;;;;;5040180;28;51122;-60
2022/02/05 05:47:20;;;;;;;;;67.00;51.25;;;;;;;;5039509;28;51317;-60
2022/02/05 05:50:11;;;;;;;;;69.25;51.50;;;;;;;;5040605;28;51160;-60
2022/02/05 05:52:56;;;;;;;;;70.75;56.25;;;;;;;;5039887;28;51628;-60
2022/02/05 05:55:47;;;;;;;;;68.50;53.50;;;;;;;;5039412;28;51044;-59
2022/02/05 05:58:32;;;;;;;;;69.75;53.25;;;;;;;;5040143;28;51065;-59
2022/02/05 06:01:16;;;;;;;;;71.25;55.75;;;;;;;;5039638;28;51090;-60
2022/02/05 06:04:00;;;;;;;;;70.00;52.25;;;;;;;;5039144;28;51184;-60
2022/02/05 06:06:45;;;;;;;;;68.75;50.25;;;;;;;;5037740;28;51179;-60
2022/02/05 06:09:29;;;;;;;;;77.75;68.75;;;;;;;;5038925;28;51612;-61
2022/02/05 06:12:14;;;;;;;;;75.25;58.25;;;;;;;;5038319;28;51006;-59
2022/02/05 06:15:01;;;;;;;;;72.00;56.00;;;;;;;;5039137;28;51128;-60
2022/02/05 06:17:45;;;;;;;;;72.00;54.75;;;;;;;;5039087;28;51164;-60
2022/02/05 06:20:29;;;;;;;;;73.75;57.25;;;;;;;;5038871;28;51593;-59
2022/02/05 06:23:14;;;;;;;;;67.75;54.00;;;;;;;;5038657;28;51515;-60
2022/02/05 06:25:58;;;;;;;;;73.25;56.50;;;;;;;;5038104;28;51221;-60
2022/02/05 06:28:42;;;;;;;;;75.25;58.50;;;;;;;;5039048;28;50990;-58
2022/02/05 06:31:27;;;;;;;;;75.25;59.00;;;;;;;;5038617;28;51146;-61
2022/02/05 06:34:11;;;;;;;;;70.50;52.25;;;;;;;;5038990;28;51113;-60
2022/02/05 06:36:56;;;;;;;;;73.25;56.75;;;;;;;;5039079;28;51152;-60
2022/02/05 06:39:40;;;;;;;;;72.25;55.50;;;;;;;;5039041;28;51100;-59
2022/02/05 06:42:24;;;;;;;;;86.75;64.75;;;;;;;;5038974;28;51181;-61
2022/02/05 06:45:09;;;;;;;;;79.00;64.75;;;;;;;;5037681;28;51648;-60
2022/02/05 06:47:53;;;;;;;;;75.50;61.25;;;;;;;;5038837;28;51153;-60
2022/02/05 06:50:38;;;;;;;;;76.50;61.50;;;;;;;;5037988;28;51044;-59
2022/02/05 06:53:22;;;;;;;;;75.75;61.25;;;;;;;;5038051;28;51223;-60
2022/02/05 06:56:06;;;;;;;;;74.25;63.50;;;;;;;;5036255;28;51135;-60
2022/02/05 06:58:51;;;;;;;;;77.00;64.75;;;;;;;;5038564;28;51208;-60
2022/02/05 07:01:35;;;;;;;;;79.50;67.00;;;;;;;;5036503;28;51159;-60
2022/02/05 07:04:24;;;;;;;;;76.00;66.75;;;;;;;;5037556;28;51278;-60
2022/02/05 07:07:08;;;;;;;;;82.50;71.00;;;;;;;;5037695;28;51305;-59
2022/02/05 07:09:53;;;;;;;;;80.25;69.75;;;;;;;;5039071;28;51070;-60
2022/02/05 07:12:55;;;;;;;;;89.25;74.00;;;;;;;;5038836;28;51144;-60
2022/02/05 07:15:46;;;;;;;;;84.00;74.00;;;;;;;;5037428;28;51111;-59
2022/02/05 07:21:20;;;;;;;;;78.50;69.25;;;;;;;;4955094;28;51298;-52
2022/02/05 07:29:51;;;;;;;;;94.75;81.50;;;;;;;;5037317;28;51081;-54
2022/02/05 07:32:36;;;;;;;;;117.75;103.00;;;;;;;;5038776;28;51539;-51
2022/02/05 07:35:20;;;;;;;;;131.75;109.00;;;;;;;;5016308;28;51351;-53
2022/02/05 07:38:05;;;;;;;;;144.25;129.25;;;;;;;;5038091;28;51100;-56
2022/02/05 07:40:51;;;;;;;;;160.50;144.00;;;;;;;;5036100;28;51406;-54
2022/02/05 07:43:35;;;;;;;;;119.00;103.25;;;;;;;;5038121;28;51575;-56
2022/02/05 07:46:20;;;;;;;;;130.25;116.50;;;;;;;;5038519;28;51241;-55
2022/02/05 07:49:05;;;;;;;;;95.50;81.75;;;;;;;;5037335;28;51384;-53
2022/02/05 07:51:49;;;;;;;;;93.75;79.25;;;;;;;;5038082;28;51152;-55
2022/02/05 07:54:34;;;;;;;;;90.25;77.50;;;;;;;;5034228;28;51208;-53
2022/02/05 07:57:18;;;;;;;;;81.75;75.25;;;;;;;;5038188;28;51436;-55
2022/02/05 08:00:05;;;;;;;;;83.25;75.00;;;;;;;;5036308;28;51124;-54
2022/02/05 08:02:51;;;;;;;;;76.25;64.50;;;;;;;;5038614;28;51203;-51
2022/02/05 08:05:35;;;;;;;;;76.75;65.00;;;;;;;;5042313;28;51096;-54
2022/02/05 08:08:24;;;;;;;;;74.75;59.75;;;;;;;;5041844;28;51467;-55
2022/02/05 08:11:12;;;;;;;;;76.25;63.50;;;;;;;;5041994;28;51015;-53
2022/02/05 08:13:57;;;;;;;;;84.00;73.25;;;;;;;;5042255;28;51145;-55
2022/02/05 08:16:59;;;;;;;;;93.00;73.00;;;;;;;;5041186;28;51159;-54
2022/02/05 08:19:45;;;;;;;;;102.75;89.00;;;;;;;;5042099;28;51014;-53
2022/02/05 08:22:30;;;;;;;;;86.75;72.75;;;;;;;;5041629;28;51109;-53
2022/02/05 08:25:14;;;;;;;;;84.50;77.25;;;;;;;;5041796;28;51084;-52
2022/02/05 08:27:59;;;;;;;;;76.00;64.00;;;;;;;;5040719;28;51252;-55
2022/02/05 08:30:43;;;;;;;;;91.50;84.25;;;;;;;;5036802;28;51148;-54
2022/02/05 08:33:27;;;;;;;;;87.00;73.00;;;;;;;;5038794;28;51405;-53
2022/02/05 08:36:12;;;;;;;;;92.75;77.25;;;;;;;;5031246;28;51234;-53
2022/02/05 08:38:56;;;;;;;;;73.00;58.75;;;;;;;;5035107;28;51204;-53
2022/02/05 08:41:41;;;;;;;;;78.00;60.25;;;;;;;;5034336;28;51175;-55
2022/02/05 08:44:25;;;;;;;;;73.00;60.25;;;;;;;;5036328;28;51173;-54
2022/02/05 08:47:10;;;;;;;;;81.25;64.75;;;;;;;;5040242;28;51072;-55
2022/02/05 08:49:55;;;;;;;;;79.25;66.25;;;;;;;;5038636;28;51117;-54
2022/02/05 08:52:40;;;;;;;;;79.25;70.00;;;;;;;;5037600;28;51061;-52
2022/02/05 08:55:28;;;;;;;;;87.75;79.00;;;;;;;;5039769;28;51410;-54
2022/02/05 08:58:13;;;;;;;;;92.25;81.75;;;;;;;;5040409;28;51119;-53
2022/02/05 09:01:12;;;;;;;;;94.25;83.75;;;;;;;;5035300;28;51215;-55
2022/02/05 09:04:10;;;;;;;;;91.75;74.25;;;;;;;;5031946;28;51966;-55
2022/02/05 09:06:58;;;;;;;;;83.00;72.75;;;;;;;;5037006;28;51230;-55
2022/02/05 09:10:01;;;;;;;;;79.00;67.50;;;;;;;;5039699;28;51172;-54
2022/02/05 09:13:12;;;;;;;;;83.50;70.50;;;;;;;;5039094;28;51478;-54
2022/02/05 09:15:51;;;;;;;;;85.25;73.25;;;;;;;;5040289;28;51411;-54
2022/02/05 09:18:35;;;;;;;;;86.25;73.25;;;;;;;;5039709;28;51356;-55
2022/02/05 09:21:19;;;;;;;;;75.00;64.50;;;;;;;;5039718;28;51150;-57
2022/02/05 09:24:06;;;;;;;;;81.75;69.00;;;;;;;;5032284;28;51235;-55
2022/02/05 09:26:58;;;;;;;;;84.00;75.50;;;;;;;;5038756;28;51140;-57
2022/02/05 09:29:47;;;;;;;;;89.75;70.50;;;;;;;;5037093;28;51129;-57
2022/02/05 09:32:34;;;;;;;;;81.75;70.50;;;;;;;;5037824;28;51047;-56
2022/02/05 09:35:18;;;;;;;;;77.50;69.25;;;;;;;;5038570;28;51164;-56
2022/02/05 09:38:02;;;;;;;;;78.75;68.75;;;;;;;;5039455;28;51482;-56
2022/02/05 09:40:47;;;;;;;;;73.75;62.25;;;;;;;;5036697;28;51588;-56
2022/02/05 09:43:31;;;;;;;;;81.50;71.75;;;;;;;;5035915;28;51195;-56
2022/02/05 09:46:18;;;;;;;;;88.25;69.75;;;;;;;;5040069;28;51091;-56
2022/02/05 09:49:03;;;;;;;;;83.50;71.75;;;;;;;;5039147;28;51527;-58
2022/02/05 09:51:56;;;;;;;;;74.25;64.25;;;;;;;;5039144;28;51268;-58
2022/02/05 09:54:42;;;;;;;;;76.25;65.00;;;;;;;;5020549;28;51173;-58
2022/02/05 09:57:27;;;;;;;;;77.50;63.50;;;;;;;;5038424;28;51248;-56
2022/02/05 10:00:15;;;;;;;;;76.50;63.00;;;;;;;;5038862;28;51144;-56
2022/02/05 10:03:02;;;;;;;;;76.25;61.25;;;;;;;;5039602;28;51180;-55
2022/02/05 10:06:02;;;;;;;;;74.50;58.75;;;;;;;;5037940;28;51049;-54
2022/02/05 10:08:54;;;;;;;;;74.00;58.75;;;;;;;;5039274;28;51146;-57
2022/02/05 10:11:59;;;;;;;;;73.25;60.00;;;;;;;;5039530;28;51182;-56
2022/02/05 10:14:49;;;;;;;;;68.25;53.50;;;;;;;;5037711;28;51161;-57
2022/02/05 10:17:41;;;;;;;;;73.50;57.50;;;;;;;;5039368;28;51151;-57
2022/02/05 10:20:25;;;;;;;;;73.25;54.75;;;;;;;;5030814;28;51600;-56
2022/02/05 10:23:10;;;;;;;;;69.00;51.50;;;;;;;;5018407;28;51317;-56
2022/02/05 10:25:55;;;;;;;;;65.00;49.00;;;;;;;;5036633;28;51179;-56
2022/02/05 10:28:56;;;;;;;;;66.00;47.50;;;;;;;;5034649;28;51592;-57
2022/02/05 10:32:02;;;;;;;;;65.25;49.50;;;;;;;;5034480;28;52294;-56
2022/02/05 10:34:54;;;;;;;;;68.75;51.00;;;;;;;;5036919;28;51051;-56
2022/02/05 10:37:43;;;;;;;;;65.50;48.00;;;;;;;;5038673;28;51078;-57
2022/02/05 10:40:42;;;;;;;;;69.25;51.25;;;;;;;;5037746;28;51049;-55
2022/02/05 10:43:34;;;;;;;;;64.75;50.25;;;;;;;;5037663;28;51116;-57
2022/02/05 10:46:18;;;;;;;;;66.75;50.25;;;;;;;;5037489;28;51168;-57
2022/02/05 10:49:03;;;;;;;;;65.00;48.50;;;;;;;;5038334;28;51157;-57
2022/02/05 10:51:48;;;;;;;;;67.00;50.25;;;;;;;;5038957;28;51115;-57
2022/02/05 10:54:44;;;;;;;;;68.75;56.25;;;;;;;;5037384;28;51292;-55
2022/02/05 10:57:51;;;;;;;;;60.75;45.75;;;;;;;;5038851;28;51641;-56
2022/02/05 11:06:23;;;;;;;;;67.50;51.50;;;;;;;;5037661;28;51459;-56
2022/02/05 11:09:07;;;;;;;;;62.00;47.00;;;;;;;;5037366;28;51175;-58
2022/02/05 11:20:25;;;;;;;;;73.50;58.50;;;;;;;;5038195;28;50998;-56
2022/02/05 11:23:11;;;;;;;;;68.50;51.75;;;;;;;;5036994;28;51654;-57
2022/02/05 11:25:57;;;;;;;;;63.50;49.00;;;;;;;;5039076;28;51229;-61
2022/02/05 11:28:42;;;;;;;;;64.00;48.50;;;;;;;;5038490;28;51116;-63
2022/02/05 11:31:43;;;;;;;;;62.50;47.00;;;;;;;;5033451;28;51500;-57
2022/02/05 11:34:33;;;;;;;;;67.00;50.50;;;;;;;;5037285;28;51224;-58
2022/02/05 11:37:17;;;;;;;;;65.50;48.25;;;;;;;;5038255;28;51180;-56
2022/02/05 11:40:01;;;;;;;;;67.75;52.00;;;;;;;;5041855;28;51084;-52
2022/02/05 11:42:45;;;;;;;;;68.50;49.75;;;;;;;;5041378;28;51231;-58
2022/02/05 11:45:31;;;;;;;;;69.25;51.50;;;;;;;;5040843;28;51650;-57
2022/02/05 11:48:34;;;;;;;;;65.00;50.00;;;;;;;;5039161;28;51594;-57
2022/02/05 11:51:18;;;;;;;;;66.00;49.00;;;;;;;;5040564;28;51176;-56
2022/02/05 11:54:08;;;;;;;;;66.75;49.50;;;;;;;;5038658;28;51224;-56
2022/02/05 11:59:55;;;;;;;;;59.75;47.75;;;;;;;;5039763;28;51282;-56
2022/02/05 12:02:41;;;;;;;;;63.25;48.25;;;;;;;;5036211;28;51433;-54
2022/02/05 12:05:38;;;;;;;;;62.25;47.75;;;;;;;;5040247;28;51165;-56
2022/02/05 12:08:26;;;;;;;;;62.25;47.50;;;;;;;;5040925;28;51132;-58
2022/02/05 12:11:25;;;;;;;;;62.00;47.00;;;;;;;;5041419;28;51089;-50
2022/02/05 12:14:17;;;;;;;;;66.00;48.00;;;;;;;;5038518;28;51625;-53
2022/02/05 12:17:11;;;;;;;;;59.00;48.75;;;;;;;;4974158;28;51195;-52
2022/02/05 12:19:59;;;;;;;;;64.25;47.00;;;;;;;;5039569;28;51216;-57
2022/02/05 12:22:59;;;;;;;;;63.50;48.25;;;;;;;;5039511;28;51133;-57
2022/02/05 12:25:59;;;;;;;;;65.25;50.25;;;;;;;;5041848;28;51066;-51
2022/02/05 12:28:44;;;;;;;;;55.00;42.75;;;;;;;;5023304;28;51177;-54
2022/02/05 12:31:33;;;;;;;;;64.00;49.75;;;;;;;;5041725;28;51161;-55
2022/02/05 12:34:18;;;;;;;;;47.50;36.00;;;;;;;;5038035;28;51282;-54
2022/02/05 12:37:03;;;;;;;;;63.75;48.75;;;;;;;;5040597;28;51433;-55
2022/02/05 12:39:48;;;;;;;;;65.75;50.00;;;;;;;;5014099;28;51589;-57
2022/02/05 12:42:32;;;;;;;;;63.25;46.75;;;;;;;;5024444;28;51224;-54
2022/02/05 12:45:19;;;;;;;;;63.50;49.00;;;;;;;;5040275;28;51097;-56
2022/02/05 12:48:07;;;;;;;;;66.75;47.50;;;;;;;;5032715;28;51383;-58
2022/02/05 12:50:51;;;;;;;;;65.00;48.75;;;;;;;;5037888;28;51139;-54
2022/02/05 12:53:36;;;;;;;;;64.50;50.25;;;;;;;;5036353;28;51728;-59
2022/02/05 12:56:22;;;;;;;;;66.50;46.75;;;;;;;;5037310;28;51282;-57
2022/02/05 12:59:11;;;;;;;;;60.75;47.25;;;;;;;;5026288;28;51222;-54
2022/02/05 13:01:55;;;;;;;;;54.50;39.75;;;;;;;;5036781;28;51128;-50
2022/02/05 13:04:41;;;;;;;;;59.50;44.00;;;;;;;;5038879;28;51746;-54
2022/02/05 13:07:25;;;;;;;;;60.50;47.00;;;;;;;;5034677;28;51495;-52
2022/02/05 13:10:10;;;;;;;;;61.50;44.50;;;;;;;;5037924;28;51168;-57
2022/02/05 13:12:57;;;;;;;;;52.00;41.00;;;;;;;;5034139;28;51149;-52
2022/02/05 13:15:41;;;;;;;;;51.25;39.75;;;;;;;;5038395;28;51254;-54
2022/02/05 13:18:45;;;;;;;;;59.00;44.25;;;;;;;;5038868;28;51487;-59
2022/02/05 13:24:58;;;;;;;;;54.50;41.50;;;;;;;;5037636;28;51148;-53
2022/02/05 13:33:41;;;;;;;;;58.00;42.75;;;;;;;;5034110;28;51171;-55
2022/02/05 13:36:40;;;;;;;;;57.00;42.75;;;;;;;;5036798;28;51171;-53
2022/02/05 13:42:22;;;;;;;;;55.00;42.25;;;;;;;;5037044;28;51145;-55
2022/02/05 13:45:13;;;;;;;;;56.75;40.75;;;;;;;;5036707;28;51260;-52
2022/02/05 13:47:57;;;;;;;;;48.75;39.00;;;;;;;;5036889;28;52714;-60
2022/02/05 13:50:41;;;;;;;;;51.75;38.75;;;;;;;;5037185;28;51236;-56
2022/02/05 13:53:26;;;;;;;;;56.75;41.50;;;;;;;;5033059;28;51179;-55
2022/02/05 13:56:10;;;;;;;;;52.75;38.50;;;;;;;;5037637;28;51238;-49
2022/02/05 13:58:55;;;;;;;;;47.00;36.75;;;;;;;;5038275;28;51558;-48
2022/02/05 14:01:39;;;;;;;;;50.50;39.75;;;;;;;;5038413;28;51096;-53
2022/02/05 14:04:24;;;;;;;;;56.50;43.25;;;;;;;;5016876;28;51160;-46
2022/02/05 14:07:08;;;;;;;;;56.75;41.50;;;;;;;;5037919;28;51538;-54
2022/02/05 14:09:52;;;;;;;;;58.00;43.50;;;;;;;;5037398;28;51726;-57
2022/02/05 14:12:45;;;;;;;;;57.25;40.75;;;;;;;;5037634;28;51176;-49
2022/02/05 14:15:43;;;;;;;;;59.50;45.25;;;;;;;;5038567;28;51141;-49
2022/02/05 14:18:29;;;;;;;;;51.00;40.25;;;;;;;;5036050;28;51524;-54
2022/02/05 14:21:14;;;;;;;;;57.00;41.75;;;;;;;;5038222;28;51563;-51
2022/02/05 14:23:58;;;;;;;;;54.25;40.75;;;;;;;;5036934;28;51070;-48
2022/02/05 14:27:04;;;;;;;;;55.00;44.00;;;;;;;;5037925;28;51141;-53
2022/02/05 14:41:15;;;;;;;;;54.25;41.75;;;;;;;;5037882;28;51160;-52
2022/02/05 14:44:00;;;;;;;;;56.75;42.75;;;;;;;;5035403;28;51207;-46
2022/02/05 14:46:44;;;;;;;;;57.25;44.25;;;;;;;;5037701;28;51600;-47
2022/02/05 14:49:29;;;;;;;;;59.75;44.75;;;;;;;;5037994;28;51456;-48
2022/02/05 14:52:15;;;;;;;;;61.00;44.25;;;;;;;;5036511;28;51140;-51
2022/02/05 14:55:00;;;;;;;;;64.25;48.50;;;;;;;;5036712;28;51152;-53
2022/02/05 14:57:45;;;;;;;;;57.25;42.50;;;;;;;;5037701;28;51162;-51
2022/02/05 15:00:29;;;;;;;;;59.75;45.50;;;;;;;;5037538;28;51146;-52
2022/02/05 15:03:18;;;;;;;;;63.75;47.75;;;;;;;;5035599;28;51121;-51
2022/02/05 15:06:09;;;;;;;;;59.00;45.25;;;;;;;;5036563;28;51171;-49
2022/02/05 15:08:54;;;;;;;;;51.50;40.75;;;;;;;;5037270;28;51045;-51
2022/02/05 15:11:38;;;;;;;;;55.25;45.00;;;;;;;;5036579;28;51752;-50
2022/02/05 15:14:22;;;;;;;;;56.00;42.25;;;;;;;;5037006;28;51152;-50
2022/02/05 15:17:06;;;;;;;;;56.75;43.25;;;;;;;;5037166;28;51128;-49
2022/02/05 15:19:51;;;;;;;;;61.25;45.00;;;;;;;;5037086;28;51132;-54
2022/02/05 15:22:35;;;;;;;;;53.00;43.00;;;;;;;;5037478;28;51384;-49
2022/02/05 15:25:20;;;;;;;;;58.75;43.50;;;;;;;;5036424;28;51088;-51
2022/02/05 15:28:04;;;;;;;;;57.50;43.75;;;;;;;;5036452;28;51070;-48
2022/02/05 15:30:49;;;;;;;;;58.50;44.00;;;;;;;;5036831;28;51245;-47
2022/02/05 15:33:39;;;;;;;;;49.75;39.25;;;;;;;;5036868;28;51129;-53
2022/02/05 15:36:39;;;;;;;;;57.50;44.00;;;;;;;;5037066;28;51608;-56
2022/02/05 15:45:23;;;;;;;;;52.25;39.75;;;;;;;;5034086;28;51128;-60
2022/02/05 15:48:07;;;;;;;;;54.75;42.75;;;;;;;;5036345;28;51240;-52
2022/02/05 15:50:53;;;;;;;;;60.25;44.25;;;;;;;;5036873;28;51668;-50
2022/02/05 15:53:46;;;;;;;;;51.50;40.25;;;;;;;;5036698;28;51273;-52
2022/02/05 15:56:41;;;;;;;;;65.75;47.75;;;;;;;;5037520;28;51144;-49
2022/02/05 15:59:44;;;;;;;;;60.50;43.25;;;;;;;;5034258;28;51195;-49
2022/02/05 16:02:28;;;;;;;;;55.50;43.00;;;;;;;;5034970;28;51334;-53
2022/02/05 16:05:12;;;;;;;;;59.50;43.00;;;;;;;;5019036;28;51180;-52
2022/02/05 16:07:56;;;;;;;;;57.25;42.75;;;;;;;;5036963;28;51200;-58
2022/02/05 16:10:41;;;;;;;;;51.00;42.50;;;;;;;;5032769;28;51158;-61
2022/02/05 16:13:25;;;;;;;;;60.75;45.00;;;;;;;;5032392;28;51066;-50
2022/02/05 16:16:10;;;;;;;;;57.50;43.25;;;;;;;;5037028;28;51201;-52
2022/02/05 16:18:55;;;;;;;;;56.75;45.50;;;;;;;;5034035;28;51281;-58
2022/02/05 16:21:40;;;;;;;;;56.50;43.00;;;;;;;;5034366;28;52038;-50
2022/02/05 16:24:24;;;;;;;;;59.50;47.25;;;;;;;;5037292;28;51137;-51
2022/02/05 16:27:09;;;;;;;;;62.25;47.50;;;;;;;;5036458;28;51321;-52
2022/02/05 16:29:53;;;;;;;;;56.25;44.50;;;;;;;;5040381;28;51293;-52
2022/02/05 16:32:38;;;;;;;;;58.00;45.50;;;;;;;;5038265;28;51179;-52
2022/02/05 16:35:27;;;;;;;;;65.00;47.25;;;;;;;;5036549;28;51519;-53
2022/02/05 16:38:18;;;;;;;;;60.75;47.50;;;;;;;;5035698;28;51148;-53
2022/02/05 16:41:06;;;;;;;;;67.25;49.50;;;;;;;;5038187;28;51709;-51
2022/02/05 16:43:51;;;;;;;;;58.00;45.75;;;;;;;;5037181;28;51112;-52
2022/02/05 16:46:39;;;;;;;;;58.25;44.00;;;;;;;;5039467;28;51599;-53
2022/02/05 16:49:25;;;;;;;;;58.25;45.75;;;;;;;;5036663;28;51261;-49
2022/02/05 16:52:09;;;;;;;;;45.50;39.00;;;;;;;;5039738;28;51168;-53
2022/02/05 16:54:53;;;;;;;;;63.00;48.25;;;;;;;;5040575;28;51267;-53
2022/02/05 16:57:37;;;;;;;;;53.25;41.75;;;;;;;;5040471;28;51151;-49
2022/02/05 17:00:22;;;;;;;;;54.00;38.50;;;;;;;;5040884;28;51065;-50
2022/02/05 17:03:06;;;;;;;;;57.75;43.50;;;;;;;;5034821;28;51065;-48
2022/02/05 17:05:51;;;;;;;;;62.25;46.25;;;;;;;;5036187;28;51716;-54
2022/02/05 17:08:36;;;;;;;;;62.25;47.25;;;;;;;;5034109;28;51075;-51
2022/02/05 17:11:20;;;;;;;;;64.25;49.25;;;;;;;;5040170;28;51121;-54
2022/02/05 17:14:05;;;;;;;;;61.00;45.25;;;;;;;;5025404;28;51124;-53
2022/02/05 17:16:51;;;;;;;;;58.75;41.75;;;;;;;;5039176;28;51458;-55
2022/02/05 17:19:38;;;;;;;;;63.75;48.00;;;;;;;;5033974;28;52407;-55
2022/02/05 17:22:28;;;;;;;;;60.50;46.75;;;;;;;;5030578;28;52287;-53
2022/02/05 17:25:12;;;;;;;;;60.75;45.25;;;;;;;;5021582;28;51151;-51
2022/02/05 17:27:56;;;;;;;;;70.25;52.25;;;;;;;;5038007;28;52307;-52
2022/02/05 17:30:41;;;;;;;;;64.00;50.25;;;;;;;;5034709;28;51755;-53
2022/02/05 17:33:29;;;;;;;;;66.25;50.50;;;;;;;;5038235;28;51098;-52
2022/02/05 17:36:18;;;;;;;;;69.00;51.00;;;;;;;;5037801;28;51393;-49
2022/02/05 17:39:05;;;;;;;;;68.25;51.00;;;;;;;;5038176;28;51520;-50
2022/02/05 17:41:50;;;;;;;;;65.75;49.00;;;;;;;;5035831;28;51720;-52
2022/02/05 17:44:35;;;;;;;;;67.25;50.75;;;;;;;;5037517;28;51268;-51
2022/02/05 17:47:19;;;;;;;;;70.75;51.75;;;;;;;;5016620;28;51522;-52
2022/02/05 17:50:04;;;;;;;;;65.00;48.50;;;;;;;;5034971;28;51470;-53
2022/02/05 17:52:49;;;;;;;;;68.25;52.00;;;;;;;;5035887;28;51163;-51
2022/02/05 17:55:33;;;;;;;;;59.00;45.75;;;;;;;;5039690;28;51101;-52
2022/02/05 17:58:19;;;;;;;;;68.25;51.50;;;;;;;;5039804;28;51289;-52
2022/02/05 18:01:06;;;;;;;;;69.25;51.50;;;;;;;;5037287;28;51093;-55
2022/02/05 18:03:52;;;;;;;;;70.25;52.75;;;;;;;;5037684;28;51175;-50
2022/02/05 18:06:43;;;;;;;;;64.75;47.25;;;;;;;;5039907;28;51153;-48
2022/02/05 18:12:18;;;;;;;;;68.25;51.50;;;;;;;;5038373;28;51315;-51
2022/02/05 18:15:04;;;;;;;;;66.25;51.25;;;;;;;;5038917;28;51502;-55
2022/02/05 18:17:48;;;;;;;;;67.50;51.25;;;;;;;;5039507;28;51134;-51
2022/02/05 18:20:33;;;;;;;;;70.75;50.75;;;;;;;;5019400;28;51196;-52
2022/02/05 18:23:17;;;;;;;;;69.25;52.75;;;;;;;;5034297;28;57712;-54
2022/02/05 18:26:02;;;;;;;;;60.25;47.75;;;;;;;;5037420;28;51398;-51
2022/02/05 18:28:46;;;;;;;;;68.75;49.50;;;;;;;;5034141;28;51040;-53
2022/02/05 18:31:30;;;;;;;;;63.00;50.00;;;;;;;;5033769;28;51655;-51
2022/02/05 18:34:15;;;;;;;;;70.00;51.00;;;;;;;;5036077;28;51168;-49
2022/02/05 18:36:59;;;;;;;;;63.00;48.00;;;;;;;;5036222;28;51212;-52
2022/02/05 18:39:47;;;;;;;;;69.00;51.50;;;;;;;;5036954;28;51112;-53
2022/02/05 18:42:34;;;;;;;;;64.75;48.00;;;;;;;;5037612;28;51135;-53
2022/02/05 18:45:22;;;;;;;;;63.75;47.50;;;;;;;;5035341;28;51211;-57
2022/02/05 18:48:06;;;;;;;;;52.25;43.50;;;;;;;;5036507;28;51138;-51
2022/02/05 18:50:55;;;;;;;;;62.00;46.75;;;;;;;;5035869;28;51137;-54
2022/02/05 18:53:42;;;;;;;;;61.00;48.00;;;;;;;;5037943;28;51156;-51
2022/02/05 18:56:27;;;;;;;;;62.50;48.00;;;;;;;;5036135;28;52311;-49
2022/02/05 18:59:11;;;;;;;;;68.75;49.50;;;;;;;;5020351;28;51279;-54
2022/02/05 19:02:25;;;;;;;;;65.75;48.25;;;;;;;;5033749;28;51405;-52
2022/02/05 19:20:16;;;;;;;;;68.50;49.25;;;;;;;;5037656;28;51377;-55
2022/02/05 19:23:01;;;;;;;;;65.25;51.00;;;;;;;;5037114;28;51698;-53